USCGC Eagle — NRCB — position and weather

sailwx.info

Track history (hours):
 
Tides and Currents Weather Stations Pressure Air Temp Water Temp Dewpoint Dewpoint Depression Visibility Wind Speed Wind Dir Waves Ship Positions

USCGC Eagle (United States)

Training ship of US Coast Guard Academy, and only square-rigger in active service in the US armed services. Ex German ship Horst Wessel.

Ship's website: http://www.cga.edu/eagle/

Last reported at 2016-Mar-26 04:00 UTC. Time now 2016-Apr-30 05:12 UTC.
Position N 38°58' W 076°24'.
Warning: this ship's position is 35 days out of date.

Type: Military. MMSI: 303990000.

ANCHORED IVO ANNAPOLIS MD

Date/timePositionNaut miles runAvg speedWind from/ knotsBaromVisibWave heightAir tempDewpointWater temp
2016-Mar-26 04:00N 38°58' W 076°24'47 2.0
2016-Mar-25 04:00N 38°12' W 076°11'61 2.6
2016-Mar-24 04:00N 37°11' W 076°05'31 1.6
2016-Mar-23 08:00N 36°46' W 075°42'23 5.7
2016-Mar-23 04:00N 36°27' W 075°25'22 5.5
2016-Mar-23 00:00N 36°09' W 075°10'34 8.5
2016-Mar-22 20:00N 35°36' W 075°01'37 9.2
2016-Mar-22 16:00N 35°00' W 074°52'46 5.8
2016-Mar-22 08:00N 34°14' W 074°46'32 8.0
2016-Mar-22 04:00N 33°48' W 075°09'13634.1
2016-Mar-22 00:00N 36°04' W 075°05'19749.2
2016-Mar-21 20:00N 32°51' W 075°47'28 6.9
2016-Mar-21 16:00N 32°36' W 076°15'33 8.3
2016-Mar-21 12:00N 32°18' W 076°48'32 7.9
2016-Mar-21 08:00N 32°04' W 077°21'35 8.7
2016-Mar-21 04:00N 31°55' W 078°01'36 9.1
2016-Mar-21 00:00N 31°40' W 078°40'59 7.4
2016-Mar-20 16:00N 31°38' W 079°49'25 3.1
2016-Mar-20 08:00N 31°56' W 080°10'9 2.2
2016-Mar-20 04:00N 31°59' W 080°20'30 4.4
2016-Mar-19 21:17N 32°02' W 080°55'6 7.8
2016-Mar-19 20:33N 32°06' W 080°60'5 4.8
2016-Mar-19 19:33N 32°05' W 081°06'0 0.0
2016-Mar-19 18:33N 32°05' W 081°06'0 0.0
2016-Mar-19 17:33N 32°05' W 081°06'0 0.0
2016-Mar-19 16:33N 32°05' W 081°06'0 0.0
2016-Mar-19 15:33N 32°05' W 081°06'0 0.0
2016-Mar-19 14:34N 32°05' W 081°06'0 0.0
2016-Mar-19 13:30N 32°05' W 081°06'0 0.0
2016-Mar-19 12:30N 32°05' W 081°06'52102.0
2016-Mar-19 12:00N 31°46' W 080°09'52117.6
2016-Mar-19 11:33N 32°05' W 081°06'0 0.0
2016-Mar-19 10:33N 32°05' W 081°06'0 0.0
2016-Mar-19 09:33N 32°05' W 081°06'0 0.0
2016-Mar-19 08:33N 32°05' W 081°06'0 0.0
2016-Mar-19 07:30N 32°05' W 081°06'0 0.0
2016-Mar-19 06:33N 32°05' W 081°06'0 0.0
2016-Mar-19 05:33N 32°05' W 081°06'0 0.0
2016-Mar-19 04:30N 32°05' W 081°06'0 0.0
2016-Mar-19 03:33N 32°05' W 081°06'0 0.0
2016-Mar-19 02:30N 32°05' W 081°06'0 0.0
2016-Mar-19 01:33N 32°05' W 081°06'0 0.0
2016-Mar-19 00:34N 32°05' W 081°06'0 0.0
2016-Mar-18 23:33N 32°05' W 081°06'0 0.0
2016-Mar-18 22:33N 32°05' W 081°06'0 0.0
2016-Mar-18 21:33N 32°05' W 081°06'0 0.0
2016-Mar-18 20:33N 32°05' W 081°06'0 0.0
2016-Mar-18 19:33N 32°05' W 081°06'0 0.0
2016-Mar-18 18:33N 32°05' W 081°06'0 0.0
2016-Mar-18 17:33N 32°05' W 081°06'0 0.0
2016-Mar-18 16:30N 32°05' W 081°06'0 0.0
2016-Mar-18 15:33N 32°05' W 081°06'0 0.0
2016-Mar-18 14:33N 32°05' W 081°06'0 0.0
2016-Mar-18 13:33N 32°05' W 081°06'0 0.0
2016-Mar-18 12:33N 32°05' W 081°06'0 0.0
2016-Mar-18 11:33N 32°05' W 081°06'0 0.0
2016-Mar-18 10:33N 32°05' W 081°06'0 0.0
2016-Mar-18 09:33N 32°05' W 081°06'0 0.0
2016-Mar-18 08:30N 32°05' W 081°06'0 0.0
2016-Mar-18 07:33N 32°05' W 081°06'0 0.0
2016-Mar-18 06:33N 32°05' W 081°06'0 0.0
2016-Mar-18 05:33N 32°05' W 081°06'0 0.0
2016-Mar-18 04:30N 32°05' W 081°06'0 0.0
2016-Mar-18 03:33N 32°05' W 081°06'0 0.0
2016-Mar-18 02:33N 32°05' W 081°06'0 0.0
2016-Mar-18 01:30N 32°05' W 081°06'0 0.0
2016-Mar-18 00:33N 32°05' W 081°06'0 0.0
2016-Mar-17 23:30N 32°05' W 081°06'0 0.0
2016-Mar-17 22:33N 32°05' W 081°06'0 0.0
2016-Mar-17 21:33N 32°05' W 081°06'0 0.0
2016-Mar-17 20:33N 32°05' W 081°06'0 0.0
2016-Mar-17 19:33N 32°05' W 081°06'0 0.0
2016-Mar-17 18:27N 32°05' W 081°06'0 0.0
2016-Mar-17 17:33N 32°05' W 081°06'0 0.0
2016-Mar-17 16:28N 32°05' W 081°06'0 0.0
2016-Mar-17 15:34N 32°05' W 081°06'0 0.0
2016-Mar-17 14:33N 32°05' W 081°06'0 0.0
2016-Mar-17 13:33N 32°05' W 081°06'0 0.0
2016-Mar-17 12:33N 32°05' W 081°06'0 0.0
2016-Mar-17 11:33N 32°05' W 081°06'0 0.0
2016-Mar-17 10:33N 32°05' W 081°06'0 0.0
2016-Mar-17 09:30N 32°05' W 081°06'0 0.0
2016-Mar-17 08:33N 32°05' W 081°06'0 0.0
2016-Mar-17 07:28N 32°05' W 081°06'0 0.0
2016-Mar-17 06:30N 32°05' W 081°06'0 0.0
2016-Mar-17 05:33N 32°05' W 081°06'0 0.0
2016-Mar-17 04:33N 32°05' W 081°06'0 0.0
2016-Mar-17 03:31N 32°05' W 081°06'0 0.0
2016-Mar-17 02:33N 32°05' W 081°06'0 0.0
2016-Mar-17 01:33N 32°05' W 081°06'0 0.0
2016-Mar-17 00:33N 32°05' W 081°06'0 0.0
2016-Mar-16 23:33N 32°05' W 081°06'0 0.0
2016-Mar-16 22:33N 32°05' W 081°06'0 0.0
2016-Mar-16 21:33N 32°05' W 081°06'0 0.0
2016-Mar-16 20:33N 32°05' W 081°06'0 0.0
2016-Mar-16 19:33N 32°05' W 081°06'0 0.0
2016-Mar-16 18:28N 32°05' W 081°06'0 0.0
2016-Mar-16 17:33N 32°05' W 081°06'0 0.0
2016-Mar-16 16:33N 32°05' W 081°06'1 0.8
2016-Mar-16 15:33N 32°05' W 081°05'  
Track history (hours):
 
Tides and Currents Weather Stations Pressure Air Temp Water Temp Dewpoint Dewpoint Depression Visibility Wind Speed Wind Dir Waves Ship Positions

USCGC Eagle (United States)

Training ship of US Coast Guard Academy, and only square-rigger in active service in the US armed services. Ex German ship Horst Wessel.

Ship's website: http://www.cga.edu/eagle/

Last reported at 2016-Mar-26 04:00 UTC. Time now 2016-Apr-30 05:12 UTC.
Position N 38°58' W 076°24'.
Warning: this ship's position is 35 days out of date.

Type: Military. MMSI: 303990000.

ANCHORED IVO ANNAPOLIS MD

Date/timePositionNaut miles runAvg speedWind from/ knotsBaromVisibWave heightAir tempDewpointWater temp
2016-Mar-26 04:00N 38°58' W 076°24'47 2.0
2016-Mar-25 04:00N 38°12' W 076°11'61 2.6
2016-Mar-24 04:00N 37°11' W 076°05'31 1.6
2016-Mar-23 08:00N 36°46' W 075°42'23 5.7
2016-Mar-23 04:00N 36°27' W 075°25'22 5.5
2016-Mar-23 00:00N 36°09' W 075°10'34 8.5
2016-Mar-22 20:00N 35°36' W 075°01'37 9.2
2016-Mar-22 16:00N 35°00' W 074°52'46 5.8
2016-Mar-22 08:00N 34°14' W 074°46'32 8.0
2016-Mar-22 04:00N 33°48' W 075°09'13634.1
2016-Mar-22 00:00N 36°04' W 075°05'19749.2
2016-Mar-21 20:00N 32°51' W 075°47'28 6.9
2016-Mar-21 16:00N 32°36' W 076°15'33 8.3
2016-Mar-21 12:00N 32°18' W 076°48'32 7.9
2016-Mar-21 08:00N 32°04' W 077°21'35 8.7
2016-Mar-21 04:00N 31°55' W 078°01'36 9.1
2016-Mar-21 00:00N 31°40' W 078°40'59 7.4
2016-Mar-20 16:00N 31°38' W 079°49'25 3.1
2016-Mar-20 08:00N 31°56' W 080°10'9 2.2
2016-Mar-20 04:00N 31°59' W 080°20'30 4.4
2016-Mar-19 21:17N 32°02' W 080°55'6 7.8
2016-Mar-19 20:33N 32°06' W 080°60'5 4.8
2016-Mar-19 19:33N 32°05' W 081°06'0 0.0
2016-Mar-19 18:33N 32°05' W 081°06'0 0.0
2016-Mar-19 17:33N 32°05' W 081°06'0 0.0
2016-Mar-19 16:33N 32°05' W 081°06'0 0.0
2016-Mar-19 15:33N 32°05' W 081°06'0 0.0
2016-Mar-19 14:34N 32°05' W 081°06'0 0.0
2016-Mar-19 13:30N 32°05' W 081°06'0 0.0
2016-Mar-19 12:30N 32°05' W 081°06'52102.0
2016-Mar-19 12:00N 31°46' W 080°09'52117.6
2016-Mar-19 11:33N 32°05' W 081°06'0 0.0
2016-Mar-19 10:33N 32°05' W 081°06'0 0.0
2016-Mar-19 09:33N 32°05' W 081°06'0 0.0
2016-Mar-19 08:33N 32°05' W 081°06'0 0.0
2016-Mar-19 07:30N 32°05' W 081°06'0 0.0
2016-Mar-19 06:33N 32°05' W 081°06'0 0.0
2016-Mar-19 05:33N 32°05' W 081°06'0 0.0
2016-Mar-19 04:30N 32°05' W 081°06'0 0.0
2016-Mar-19 03:33N 32°05' W 081°06'0 0.0
2016-Mar-19 02:30N 32°05' W 081°06'0 0.0
2016-Mar-19 01:33N 32°05' W 081°06'0 0.0
2016-Mar-19 00:34N 32°05' W 081°06'0 0.0
2016-Mar-18 23:33N 32°05' W 081°06'0 0.0
2016-Mar-18 22:33N 32°05' W 081°06'0 0.0
2016-Mar-18 21:33N 32°05' W 081°06'0 0.0
2016-Mar-18 20:33N 32°05' W 081°06'0 0.0
2016-Mar-18 19:33N 32°05' W 081°06'0 0.0
2016-Mar-18 18:33N 32°05' W 081°06'0 0.0
2016-Mar-18 17:33N 32°05' W 081°06'0 0.0
2016-Mar-18 16:30N 32°05' W 081°06'0 0.0
2016-Mar-18 15:33N 32°05' W 081°06'0 0.0
2016-Mar-18 14:33N 32°05' W 081°06'0 0.0
2016-Mar-18 13:33N 32°05' W 081°06'0 0.0
2016-Mar-18 12:33N 32°05' W 081°06'0 0.0
2016-Mar-18 11:33N 32°05' W 081°06'0 0.0
2016-Mar-18 10:33N 32°05' W 081°06'0 0.0
2016-Mar-18 09:33N 32°05' W 081°06'0 0.0
2016-Mar-18 08:30N 32°05' W 081°06'0 0.0
2016-Mar-18 07:33N 32°05' W 081°06'0 0.0
2016-Mar-18 06:33N 32°05' W 081°06'0 0.0
2016-Mar-18 05:33N 32°05' W 081°06'0 0.0
2016-Mar-18 04:30N 32°05' W 081°06'0 0.0
2016-Mar-18 03:33N 32°05' W 081°06'0 0.0
2016-Mar-18 02:33N 32°05' W 081°06'0 0.0
2016-Mar-18 01:30N 32°05' W 081°06'0 0.0
2016-Mar-18 00:33N 32°05' W 081°06'0 0.0
2016-Mar-17 23:30N 32°05' W 081°06'0 0.0
2016-Mar-17 22:33N 32°05' W 081°06'0 0.0
2016-Mar-17 21:33N 32°05' W 081°06'0 0.0
2016-Mar-17 20:33N 32°05' W 081°06'0 0.0
2016-Mar-17 19:33N 32°05' W 081°06'0 0.0
2016-Mar-17 18:27N 32°05' W 081°06'0 0.0
2016-Mar-17 17:33N 32°05' W 081°06'0 0.0
2016-Mar-17 16:28N 32°05' W 081°06'0 0.0
2016-Mar-17 15:34N 32°05' W 081°06'0 0.0
2016-Mar-17 14:33N 32°05' W 081°06'0 0.0
2016-Mar-17 13:33N 32°05' W 081°06'0 0.0
2016-Mar-17 12:33N 32°05' W 081°06'0 0.0
2016-Mar-17 11:33N 32°05' W 081°06'0 0.0
2016-Mar-17 10:33N 32°05' W 081°06'0 0.0
2016-Mar-17 09:30N 32°05' W 081°06'0 0.0
2016-Mar-17 08:33N 32°05' W 081°06'0 0.0
2016-Mar-17 07:28N 32°05' W 081°06'0 0.0
2016-Mar-17 06:30N 32°05' W 081°06'0 0.0
2016-Mar-17 05:33N 32°05' W 081°06'0 0.0
2016-Mar-17 04:33N 32°05' W 081°06'0 0.0
2016-Mar-17 03:31N 32°05' W 081°06'0 0.0
2016-Mar-17 02:33N 32°05' W 081°06'0 0.0
2016-Mar-17 01:33N 32°05' W 081°06'0 0.0
2016-Mar-17 00:33N 32°05' W 081°06'0 0.0
2016-Mar-16 23:33N 32°05' W 081°06'0 0.0
2016-Mar-16 22:33N 32°05' W 081°06'0 0.0
2016-Mar-16 21:33N 32°05' W 081°06'0 0.0
2016-Mar-16 20:33N 32°05' W 081°06'0 0.0
2016-Mar-16 19:33N 32°05' W 081°06'0 0.0
2016-Mar-16 18:28N 32°05' W 081°06'0 0.0
2016-Mar-16 17:33N 32°05' W 081°06'0 0.0
2016-Mar-16 16:33N 32°05' W 081°06'1 0.8
2016-Mar-16 15:33N 32°05' W 081°05'  

Dump ship's entire track history